Address 0x2bd3273488d5962b90564c2abcb09d039a358621 25

 

Overview

Balance:
0.000420307082784963 ETH

ETH Value:
$1.31 (@ $3,104.89/ETH)
Txn Hash Method
Block
From
To
Value [Txn Fee]
0x01a4776c1ebdf4d57abe2b74d0304bad8c8ab6099c7b4c966246e210b570d6aaSend From1813266452024-02-16 11:59:1191 days 19 hrs ago0x2bd3273488d5962b90564c2abcb09d039a358621OUT 0x863656e346d8a42ec7caaad606611b6fd8916f320.000073007468733 ETH0.00011166 0.1
0x6264c8351243eceaad474c013e4a950f5b0e46305767719f0208297e0b8edb56Approve1813266072024-02-16 11:59:0191 days 19 hrs ago0x2bd3273488d5962b90564c2abcb09d039a358621OUT 0x8bf591eae535f93a242d5a954d3cde648b48a5a80 ETH0.00005497 0.1
0x074f525aa37058172e8883640beaeb795e02f8ae9a559c59553c090cffa63c75Execute1813264872024-02-16 11:58:3291 days 19 hrs ago0x2bd3273488d5962b90564c2abcb09d039a358621OUT Uniswap: Universal Router V1 20.000007961568721 ETH0.00012462 0.1
0x17bdda88028da54d5a72c8bb2ba70c9c49edaa48ffe6ccf957969a4c30d775bfSend Tokens1813259982024-02-16 11:56:2791 days 19 hrs ago0x2bd3273488d5962b90564c2abcb09d039a358621OUT Stargate Finance: STG Token0.000157189446873 ETH0.0001041 0.1
0xd98178835df940c2c612130fd0428a7e8c5d12bf2b1e3147ba0cf9a030cebcc4Transfer1813189492024-02-16 11:26:2991 days 20 hrs agoBinance Hot Wallet IN 0x2bd3273488d5962b90564c2abcb09d039a3586210.00087 ETH0.00003301 0.1
0xe47b10525dda0f776ccbb5b8e87176c8f9d4221a88b994b76fdf00510429efd6Execute1662894092024-01-02 10:49:49136 days 20 hrs ago0x2bd3273488d5962b90564c2abcb09d039a358621OUT Uniswap: Universal Router V1 20 ETH0.00012279 0.1
0xa1b8c46959cd1fac3f6ef44b645ae066cd05a1f3c362d478fd40c784ed03eb20Approve1662893242024-01-02 10:49:27136 days 20 hrs ago0x2bd3273488d5962b90564c2abcb09d039a358621OUT Maker DAO: DAI Token0 ETH0.00004109 0.1
0x2c16e1d8c9430e0be8c9da06dec9f4294a6c8ced1669bf4d581ef10ccef3d7ceSend From1662891352024-01-02 10:48:40136 days 20 hrs ago0x2bd3273488d5962b90564c2abcb09d039a358621OUT Bitcoin Avalanche Bridged: BTC.b Token0.00002046364268 ETH0.00008953 0.1
0x032aadcd6af6747f68c2eeec19ca727e1ffe2646ac8ec695d24412513c86c20fExecute1416468032023-10-18 8:54:00212 days 22 hrs ago0x2bd3273488d5962b90564c2abcb09d039a358621OUT Uniswap: Universal Router V1 20 ETH0.00007296 0.1
0x16c49976e3eab46c134613074aad704753af9e63a2fa8100eaa5ebad3cc4afa6Swap ETH1416465022023-10-18 8:52:44212 days 22 hrs ago0x2bd3273488d5962b90564c2abcb09d039a358621OUT Stargate Finance: ETH Router0.001377656248582 ETH0.00006934 0.1
0xadc51d15f63ba4984891dca0edd86e0c8b2e6c2c5694a7f2b3230bdd4aba6424Send Tokens1416463442023-10-18 8:52:03212 days 22 hrs ago0x2bd3273488d5962b90564c2abcb09d039a358621OUT Stargate Finance: STG Token0.000150560987533 ETH0.00005087 0.1
0xf1cbe5ca867efbec7fc57d97867d367c8724d9da94a2fac1172d95049479b3bdProcess Route1416462602023-10-18 8:51:40212 days 22 hrs ago0x2bd3273488d5962b90564c2abcb09d039a358621OUT SushiSwap: Route Processor v3.20 ETH0.00006571 0.1
0xade97f0d5c829eba9fb024fdb85e8039fa2d5b5785b18a026c07bc2541e762c8Approve1416462112023-10-18 8:51:27212 days 22 hrs ago0x2bd3273488d5962b90564c2abcb09d039a358621OUT Arbitrum: USDC Token0 ETH0.00002302 0.1
0xfd6f74f954463507f72b2d24f0a1acfae78091493d1d09cc14dc3a5b7492fc24Transfer1416453102023-10-18 8:47:38212 days 22 hrs ago0x0938c63109801ee4243a487ab84dffa2bba4589e IN 0x2bd3273488d5962b90564c2abcb09d039a3586210.001 ETH0.00001366 0.1
0x4fc17f7a88275bcb93b0e16a81d41569b143751232238d7448337c65dd22cdecTransfer1263025172023-08-30 6:42:25262 days 52 mins ago0x2bd3273488d5962b90564c2abcb09d039a358621OUT Stargate Finance: STG Token0 ETH0.00003374 0.1
0x4f75bf4e22277bbd3f0bdbb8a70f52324448154bb503d9adedaa9ad47c20a1f3Send Tokens1263007322023-08-30 6:34:46262 days 1 hr ago0x2bd3273488d5962b90564c2abcb09d039a358621OUT Stargate Finance: STG Token0.000410945507254 ETH0.00007919 0.1
0xf2cdf6d1f401279d936734583c1e5ecf82c4466812d6a5d1036e71f68fe4018aSwap ETH1262962552023-08-30 6:14:54262 days 1 hr ago0x2bd3273488d5962b90564c2abcb09d039a358621OUT Stargate Finance: ETH Router0.001542554696854 ETH0.00009188 0.1
0x7ae2154f1f94a4a2b62a2f8036d2a085e273588c6e2cd2d482162c23f83c8598Transfer1262960242023-08-30 6:13:51262 days 1 hr ago0x0938c63109801ee4243a487ab84dffa2bba4589e IN 0x2bd3273488d5962b90564c2abcb09d039a3586210.002 ETH0.00002166 0.1
0x1c0330fc7f15a8152eec3704897c995f9a1b258c4375236d588d04b8ddd44933Swap1262953102023-08-30 6:10:36262 days 1 hr ago0x2bd3273488d5962b90564c2abcb09d039a358621OUT Stargate Finance: Router0.000027626396746 ETH0.00011002 0.1
0x10e7634b34e67e672713a7727f8b317261563a3d71c95d87498455d841b8df3fApprove1262952782023-08-30 6:10:27262 days 1 hr ago0x2bd3273488d5962b90564c2abcb09d039a358621OUT Tether: USDT Token0 ETH0.00003308 0.1
0xedee123e10ea6d5248706239eea6dcb7c22098402c4e6db1c1e6a52d334397f8Execute1262950442023-08-30 6:09:23262 days 1 hr ago0x2bd3273488d5962b90564c2abcb09d039a358621OUT Uniswap: Universal Router 30 ETH0.00009951 0.1
0x88a88644b970a5c4341653cf27d775b03d5e507b312704a2a95311da26e21fc7Approve1262949752023-08-30 6:09:03262 days 1 hr ago0x2bd3273488d5962b90564c2abcb09d039a358621OUT Arbitrum: USDC Token0 ETH0.00003372 0.1
0xf56f6745cd65864af1d799ef811c08762e850160e844c0416c9875ef8431308dSwap Exact Token...1262946422023-08-30 6:07:28262 days 1 hr ago0x2bd3273488d5962b90564c2abcb09d039a358621OUT Trader Joe: LBRouter v2.10 ETH0.00007828 0.1
0x071cc6c0d70aecd66b8fbaa3cba331404d7d53e719089d9bbf24feeb21167705Approve1262945772023-08-30 6:07:09262 days 1 hr ago0x2bd3273488d5962b90564c2abcb09d039a358621OUT Angle Protocol: agEUR Token0 ETH0.00003304 0.1
0xea2e5d371b4c2c7935a572b428862940182acc619b21b9ebb070a0a968efb80cSwap ETH1237921192023-08-22 7:40:46269 days 23 hrs ago0x2bd3273488d5962b90564c2abcb09d039a358621OUT Stargate Finance: ETH Router0.000449203308519 ETH0.00010496 0.1
[ Download CSV Export 
Latest 7 internal transactions
Parent Txn Hash Block From To Value
0x074f525aa37058172e8883640beaeb795e02f8ae9a559c59553c090cffa63c751813264872024-02-16 11:58:3291 days 19 hrs ago Uniswap: Universal Router V1 20x2bd3273488d5962b90564c2abcb09d039a3586210.000000039609794636 ETH
0xb6ef5f790698c230c91651d3b5ba71545d266be8edaeb80fcf087e48d89407fa1237917772023-08-22 7:39:21269 days 23 hrs ago Layer Zero: Ultra Light Node v20x2bd3273488d5962b90564c2abcb09d039a3586210.00012205830263426 ETH
0x3f477dc92ea72a2b7a6d30906e33ff33991ed682385d73b5285b9ddb51c5b55f1237914922023-08-22 7:38:08269 days 23 hrs ago Layer Zero: Ultra Light Node v20x2bd3273488d5962b90564c2abcb09d039a3586210.000039843056514915 ETH
0x9cd79f423739b788e56d5cd6a991f27f29e16b35f62e6152835fea12a6eaaabd1100210482023-07-11 6:11:47312 days 1 hr ago Uniswap: Universal Router 30x2bd3273488d5962b90564c2abcb09d039a3586210.000001183233015082 ETH
0x77d666357b83b173f612e64116bcf0276e0a67590283f5ff68de3899c21e805f962425092023-05-31 5:35:50353 days 1 hr ago Uniswap V3: Router 20x2bd3273488d5962b90564c2abcb09d039a3586210.000001606113166797 ETH
0xb0300e87532c730fa04743172f30cc6742b2ff75bc45b5569c46a5ad76358c79962374262023-05-31 5:14:39353 days 2 hrs ago Stargate Finance: SGETH Token0x2bd3273488d5962b90564c2abcb09d039a3586210.028381553257902528 ETH
0x2133913edd493c21d58ba316e71136903e0f3fcef0e1e82fa0dec6995a97bca6962368452023-05-31 5:12:13353 days 2 hrs ago Stargate Finance: SGETH Token0x2bd3273488d5962b90564c2abcb09d039a3586210.031063140096519624 ETH
[ Download CSV Export 
Loading

Contract Name:
0 ETH

Compiler Version
0

Optimization Enabled:
0 ETH

Other Settings:
-NA-
Block Transaction Gas Used Reward
Age Block Fee Address BC Fee Address Voting Power Jailed Incoming
Block Uncle Number Difficulty Gas Used Reward
Loading
Make sure to use the "Vote Down" button for any spammy posts, and the "Vote Up" for interesting conversations.